sensor_id;sensor_type;location;lat;lon;timestamp;temperature;humidity
21568;DHT22;10944;42.590;12.630;2022-09-27T00:00:04;18.00;99.90
21568;DHT22;10944;42.590;12.630;2022-09-27T00:02:30;17.90;99.90
21568;DHT22;10944;42.590;12.630;2022-09-27T00:04:56;17.90;99.90
21568;DHT22;10944;42.590;12.630;2022-09-27T00:07:23;17.90;99.90
21568;DHT22;10944;42.590;12.630;2022-09-27T00:09:49;17.80;99.90
21568;DHT22;10944;42.590;12.630;2022-09-27T00:12:14;17.80;99.90
21568;DHT22;10944;42.590;12.630;2022-09-27T00:14:40;17.70;99.90
21568;DHT22;10944;42.590;12.630;2022-09-27T00:17:06;17.70;99.90
21568;DHT22;10944;42.590;12.630;2022-09-27T00:19:32;17.70;99.90
21568;DHT22;10944;42.590;12.630;2022-09-27T00:21:57;17.80;99.90
21568;DHT22;10944;42.590;12.630;2022-09-27T00:24:25;17.70;99.90
21568;DHT22;10944;42.590;12.630;2022-09-27T00:26:51;17.70;99.90
21568;DHT22;10944;42.590;12.630;2022-09-27T00:29:18;17.60;99.90
21568;DHT22;10944;42.590;12.630;2022-09-27T00:31:44;17.60;99.90
21568;DHT22;10944;42.590;12.630;2022-09-27T00:34:20;17.60;99.90
21568;DHT22;10944;42.590;12.630;2022-09-27T00:36:46;17.60;99.90
21568;DHT22;10944;42.590;12.630;2022-09-27T00:39:13;17.60;99.90
21568;DHT22;10944;42.590;12.630;2022-09-27T00:41:39;17.60;99.90
21568;DHT22;10944;42.590;12.630;2022-09-27T00:50:02;17.60;99.90
21568;DHT22;10944;42.590;12.630;2022-09-27T00:55:06;17.70;99.90
21568;DHT22;10944;42.590;12.630;2022-09-27T00:57:33;17.70;99.90
21568;DHT22;10944;42.590;12.630;2022-09-27T01:00:10;17.70;99.90
21568;DHT22;10944;42.590;12.630;2022-09-27T01:02:40;17.70;99.90
21568;DHT22;10944;42.590;12.630;2022-09-27T01:05:08;17.70;99.90
21568;DHT22;10944;42.590;12.630;2022-09-27T01:07:35;17.70;99.90
21568;DHT22;10944;42.590;12.630;2022-09-27T01:10:01;17.70;99.90
21568;DHT22;10944;42.590;12.630;2022-09-27T01:36:18;17.70;99.90
21568;DHT22;10944;42.590;12.630;2022-09-27T01:44:01;17.80;99.90
21568;DHT22;10944;42.590;12.630;2022-09-27T01:46:34;17.80;99.90
21568;DHT22;10944;42.590;12.630;2022-09-27T01:49:07;17.70;99.90
21568;DHT22;10944;42.590;12.630;2022-09-27T01:51:56;17.70;99.90
21568;DHT22;10944;42.590;12.630;2022-09-27T01:54:29;17.70;99.90
21568;DHT22;10944;42.590;12.630;2022-09-27T01:56:56;17.70;99.90
21568;DHT22;10944;42.590;12.630;2022-09-27T01:59:30;17.70;99.90
21568;DHT22;10944;42.590;12.630;2022-09-27T02:02:01;17.70;99.90
21568;DHT22;10944;42.590;12.630;2022-09-27T02:04:31;17.70;99.90
21568;DHT22;10944;42.590;12.630;2022-09-27T02:07:01;17.70;99.90
21568;DHT22;10944;42.590;12.630;2022-09-27T02:09:40;17.70;99.90
21568;DHT22;10944;42.590;12.630;2022-09-27T02:12:12;17.70;99.90
21568;DHT22;10944;42.590;12.630;2022-09-27T02:20:39;17.60;99.90
21568;DHT22;10944;42.590;12.630;2022-09-27T02:26:41;17.70;99.90
21568;DHT22;10944;42.590;12.630;2022-09-27T02:29:15;17.60;99.90
21568;DHT22;10944;42.590;12.630;2022-09-27T02:31:38;17.60;99.90
21568;DHT22;10944;42.590;12.630;2022-09-27T02:34:23;17.60;99.90
21568;DHT22;10944;42.590;12.630;2022-09-27T02:36:50;17.50;99.90
21568;DHT22;10944;42.590;12.630;2022-09-27T02:39:18;17.40;99.90
21568;DHT22;10944;42.590;12.630;2022-09-27T02:41:44;17.30;99.90
21568;DHT22;10944;42.590;12.630;2022-09-27T02:44:13;17.30;99.90
21568;DHT22;10944;42.590;12.630;2022-09-27T02:46:52;17.20;99.90
21568;DHT22;10944;42.590;12.630;2022-09-27T03:00:29;17.40;99.90
21568;DHT22;10944;42.590;12.630;2022-09-27T03:02:47;17.40;99.90
21568;DHT22;10944;42.590;12.630;2022-09-27T03:05:27;17.40;99.90
21568;DHT22;10944;42.590;12.630;2022-09-27T03:07:54;17.50;99.90
21568;DHT22;10944;42.590;12.630;2022-09-27T03:10:24;17.50;99.90
21568;DHT22;10944;42.590;12.630;2022-09-27T03:12:50;17.60;99.90
21568;DHT22;10944;42.590;12.630;2022-09-27T03:15:16;17.60;99.90
21568;DHT22;10944;42.590;12.630;2022-09-27T03:17:42;17.50;99.90
21568;DHT22;10944;42.590;12.630;2022-09-27T03:20:08;17.40;99.90
21568;DHT22;10944;42.590;12.630;2022-09-27T03:22:34;17.40;99.90
21568;DHT22;10944;42.590;12.630;2022-09-27T03:25:01;17.50;99.90
21568;DHT22;10944;42.590;12.630;2022-09-27T03:27:27;17.50;99.90
21568;DHT22;10944;42.590;12.630;2022-09-27T03:29:53;17.50;99.90
21568;DHT22;10944;42.590;12.630;2022-09-27T03:32:18;17.40;99.90
21568;DHT22;10944;42.590;12.630;2022-09-27T03:34:45;17.40;99.90
21568;DHT22;10944;42.590;12.630;2022-09-27T03:37:10;17.30;99.90
21568;DHT22;10944;42.590;12.630;2022-09-27T03:39:36;17.40;99.90
21568;DHT22;10944;42.590;12.630;2022-09-27T03:42:02;17.30;99.90
21568;DHT22;10944;42.590;12.630;2022-09-27T03:44:28;17.30;99.90
21568;DHT22;10944;42.590;12.630;2022-09-27T03:46:53;17.20;99.90
21568;DHT22;10944;42.590;12.630;2022-09-27T03:49:19;17.20;99.90
21568;DHT22;10944;42.590;12.630;2022-09-27T03:51:45;17.20;99.90
21568;DHT22;10944;42.590;12.630;2022-09-27T03:54:11;17.10;99.90
21568;DHT22;10944;42.590;12.630;2022-09-27T03:56:36;17.10;99.90
21568;DHT22;10944;42.590;12.630;2022-09-27T03:59:02;16.90;99.90
21568;DHT22;10944;42.590;12.630;2022-09-27T04:01:28;16.90;99.90
21568;DHT22;10944;42.590;12.630;2022-09-27T04:03:54;16.90;99.90
21568;DHT22;10944;42.590;12.630;2022-09-27T04:06:19;16.90;99.90
21568;DHT22;10944;42.590;12.630;2022-09-27T04:08:45;16.90;99.90
21568;DHT22;10944;42.590;12.630;2022-09-27T04:11:12;16.90;99.90
21568;DHT22;10944;42.590;12.630;2022-09-27T04:13:39;16.90;99.90
21568;DHT22;10944;42.590;12.630;2022-09-27T04:16:05;16.90;99.90
21568;DHT22;10944;42.590;12.630;2022-09-27T04:18:30;16.90;99.90
21568;DHT22;10944;42.590;12.630;2022-09-27T04:20:56;16.90;99.90
21568;DHT22;10944;42.590;12.630;2022-09-27T04:23:22;16.90;99.90
21568;DHT22;10944;42.590;12.630;2022-09-27T04:25:48;17.00;99.90
21568;DHT22;10944;42.590;12.630;2022-09-27T04:28:14;17.00;99.90
21568;DHT22;10944;42.590;12.630;2022-09-27T04:30:40;17.10;99.90
21568;DHT22;10944;42.590;12.630;2022-09-27T04:33:06;17.10;99.90
21568;DHT22;10944;42.590;12.630;2022-09-27T04:35:32;17.10;99.90
21568;DHT22;10944;42.590;12.630;2022-09-27T04:38:16;17.10;99.90
21568;DHT22;10944;42.590;12.630;2022-09-27T04:40:44;17.20;99.90
21568;DHT22;10944;42.590;12.630;2022-09-27T04:43:11;17.20;99.90
21568;DHT22;10944;42.590;12.630;2022-09-27T04:45:37;17.20;99.90
21568;DHT22;10944;42.590;12.630;2022-09-27T04:48:02;17.20;99.90
21568;DHT22;10944;42.590;12.630;2022-09-27T04:50:28;17.20;99.90
21568;DHT22;10944;42.590;12.630;2022-09-27T04:52:54;17.20;99.90
21568;DHT22;10944;42.590;12.630;2022-09-27T04:55:20;17.20;99.90
21568;DHT22;10944;42.590;12.630;2022-09-27T04:57:47;17.30;99.90
21568;DHT22;10944;42.590;12.630;2022-09-27T05:00:13;17.30;99.90
21568;DHT22;10944;42.590;12.630;2022-09-27T05:02:41;17.30;99.90
21568;DHT22;10944;42.590;12.630;2022-09-27T05:05:07;17.30;99.90
21568;DHT22;10944;42.590;12.630;2022-09-27T05:07:33;17.30;99.90
21568;DHT22;10944;42.590;12.630;2022-09-27T05:09:59;17.30;99.90
21568;DHT22;10944;42.590;12.630;2022-09-27T05:12:25;17.30;99.90
21568;DHT22;10944;42.590;12.630;2022-09-27T05:14:52;17.30;99.90
21568;DHT22;10944;42.590;12.630;2022-09-27T05:17:18;17.30;99.90
21568;DHT22;10944;42.590;12.630;2022-09-27T05:19:47;17.30;99.90
21568;DHT22;10944;42.590;12.630;2022-09-27T05:22:12;17.30;99.90
21568;DHT22;10944;42.590;12.630;2022-09-27T05:24:38;17.30;99.90
21568;DHT22;10944;42.590;12.630;2022-09-27T05:27:04;17.30;99.90
21568;DHT22;10944;42.590;12.630;2022-09-27T05:29:34;17.30;99.90
21568;DHT22;10944;42.590;12.630;2022-09-27T05:32:00;17.30;99.90
21568;DHT22;10944;42.590;12.630;2022-09-27T05:34:26;17.30;99.90
21568;DHT22;10944;42.590;12.630;2022-09-27T05:36:52;17.30;99.90
21568;DHT22;10944;42.590;12.630;2022-09-27T05:39:17;17.30;99.90
21568;DHT22;10944;42.590;12.630;2022-09-27T05:41:44;17.30;99.90
21568;DHT22;10944;42.590;12.630;2022-09-27T05:44:10;17.30;99.90
21568;DHT22;10944;42.590;12.630;2022-09-27T05:46:37;17.30;99.90
21568;DHT22;10944;42.590;12.630;2022-09-27T05:49:04;17.40;99.90
21568;DHT22;10944;42.590;12.630;2022-09-27T05:51:30;17.40;99.90
21568;DHT22;10944;42.590;12.630;2022-09-27T05:53:56;17.40;99.90
21568;DHT22;10944;42.590;12.630;2022-09-27T05:56:22;17.50;99.90
21568;DHT22;10944;42.590;12.630;2022-09-27T05:58:49;17.50;99.90
21568;DHT22;10944;42.590;12.630;2022-09-27T06:01:15;17.50;99.90
21568;DHT22;10944;42.590;12.630;2022-09-27T06:03:41;17.50;99.90
21568;DHT22;10944;42.590;12.630;2022-09-27T06:06:07;17.60;99.90
21568;DHT22;10944;42.590;12.630;2022-09-27T06:08:37;17.60;99.90
21568;DHT22;10944;42.590;12.630;2022-09-27T06:11:08;17.60;99.90
21568;DHT22;10944;42.590;12.630;2022-09-27T06:13:35;17.60;99.90
21568;DHT22;10944;42.590;12.630;2022-09-27T06:16:01;17.70;99.90
21568;DHT22;10944;42.590;12.630;2022-09-27T06:18:28;17.70;99.90
21568;DHT22;10944;42.590;12.630;2022-09-27T06:20:54;17.70;99.90
21568;DHT22;10944;42.590;12.630;2022-09-27T06:23:21;17.80;99.90
21568;DHT22;10944;42.590;12.630;2022-09-27T06:25:48;17.80;99.90
21568;DHT22;10944;42.590;12.630;2022-09-27T06:28:15;17.90;99.90
21568;DHT22;10944;42.590;12.630;2022-09-27T06:30:44;17.90;99.90
21568;DHT22;10944;42.590;12.630;2022-09-27T06:33:18;18.00;99.90
21568;DHT22;10944;42.590;12.630;2022-09-27T06:35:45;18.10;99.90
21568;DHT22;10944;42.590;12.630;2022-09-27T06:38:15;18.00;99.90
21568;DHT22;10944;42.590;12.630;2022-09-27T06:40:43;18.10;99.90
21568;DHT22;10944;42.590;12.630;2022-09-27T06:43:11;18.20;99.90
21568;DHT22;10944;42.590;12.630;2022-09-27T06:45:38;18.30;99.90
21568;DHT22;10944;42.590;12.630;2022-09-27T06:48:05;18.40;99.90
21568;DHT22;10944;42.590;12.630;2022-09-27T06:50:35;18.50;99.90
21568;DHT22;10944;42.590;12.630;2022-09-27T06:53:03;18.50;99.90
21568;DHT22;10944;42.590;12.630;2022-09-27T06:55:29;18.50;99.90
21568;DHT22;10944;42.590;12.630;2022-09-27T06:57:56;18.60;99.90
21568;DHT22;10944;42.590;12.630;2022-09-27T07:00:40;18.60;99.90
21568;DHT22;10944;42.590;12.630;2022-09-27T07:03:08;18.50;99.90
21568;DHT22;10944;42.590;12.630;2022-09-27T07:05:36;18.60;99.90
21568;DHT22;10944;42.590;12.630;2022-09-27T07:08:02;18.70;99.90
21568;DHT22;10944;42.590;12.630;2022-09-27T07:10:30;18.80;99.90
21568;DHT22;10944;42.590;12.630;2022-09-27T07:13:09;19.00;99.90
21568;DHT22;10944;42.590;12.630;2022-09-27T07:15:41;19.10;99.90
21568;DHT22;10944;42.590;12.630;2022-09-27T07:18:07;19.20;99.90
21568;DHT22;10944;42.590;12.630;2022-09-27T07:20:34;19.10;99.90
21568;DHT22;10944;42.590;12.630;2022-09-27T07:23:07;19.00;99.90
21568;DHT22;10944;42.590;12.630;2022-09-27T07:25:33;18.90;99.90
21568;DHT22;10944;42.590;12.630;2022-09-27T07:28:01;19.00;99.90
21568;DHT22;10944;42.590;12.630;2022-09-27T07:30:28;19.00;99.90
21568;DHT22;10944;42.590;12.630;2022-09-27T07:33:01;19.10;99.90
21568;DHT22;10944;42.590;12.630;2022-09-27T07:35:27;19.10;99.90
21568;DHT22;10944;42.590;12.630;2022-09-27T07:37:55;19.10;99.90
21568;DHT22;10944;42.590;12.630;2022-09-27T07:40:21;19.10;99.90
21568;DHT22;10944;42.590;12.630;2022-09-27T07:42:46;19.10;99.90
21568;DHT22;10944;42.590;12.630;2022-09-27T07:45:12;19.10;99.90
21568;DHT22;10944;42.590;12.630;2022-09-27T07:47:39;19.00;99.90
21568;DHT22;10944;42.590;12.630;2022-09-27T07:50:08;19.00;99.90
21568;DHT22;10944;42.590;12.630;2022-09-27T07:52:39;19.00;99.90
21568;DHT22;10944;42.590;12.630;2022-09-27T07:55:06;19.00;99.90
21568;DHT22;10944;42.590;12.630;2022-09-27T07:57:32;19.10;99.90
21568;DHT22;10944;42.590;12.630;2022-09-27T07:59:58;19.20;99.90
21568;DHT22;10944;42.590;12.630;2022-09-27T08:02:24;19.10;99.90
21568;DHT22;10944;42.590;12.630;2022-09-27T08:04:50;19.10;99.90
21568;DHT22;10944;42.590;12.630;2022-09-27T08:07:17;19.00;99.90
21568;DHT22;10944;42.590;12.630;2022-09-27T08:09:43;18.90;99.90
21568;DHT22;10944;42.590;12.630;2022-09-27T08:12:08;18.90;99.90
21568;DHT22;10944;42.590;12.630;2022-09-27T08:14:35;19.10;99.90
21568;DHT22;10944;42.590;12.630;2022-09-27T08:17:00;19.40;99.90
21568;DHT22;10944;42.590;12.630;2022-09-27T08:19:26;19.70;99.90
21568;DHT22;10944;42.590;12.630;2022-09-27T08:21:52;19.80;99.90
21568;DHT22;10944;42.590;12.630;2022-09-27T08:24:21;19.90;99.90
21568;DHT22;10944;42.590;12.630;2022-09-27T08:26:46;19.90;99.90
21568;DHT22;10944;42.590;12.630;2022-09-27T08:29:12;19.90;99.90
21568;DHT22;10944;42.590;12.630;2022-09-27T08:31:38;19.90;99.90
21568;DHT22;10944;42.590;12.630;2022-09-27T08:34:04;19.90;99.90
21568;DHT22;10944;42.590;12.630;2022-09-27T08:36:30;19.90;99.90
21568;DHT22;10944;42.590;12.630;2022-09-27T08:39:00;19.80;99.90
21568;DHT22;10944;42.590;12.630;2022-09-27T08:41:40;19.90;99.90
21568;DHT22;10944;42.590;12.630;2022-09-27T08:46:58;19.90;99.90
21568;DHT22;10944;42.590;12.630;2022-09-27T08:49:47;19.90;99.90
21568;DHT22;10944;42.590;12.630;2022-09-27T08:52:29;20.00;99.90
21568;DHT22;10944;42.590;12.630;2022-09-27T08:55:00;20.20;99.90
21568;DHT22;10944;42.590;12.630;2022-09-27T08:57:27;20.20;99.90
21568;DHT22;10944;42.590;12.630;2022-09-27T09:00:11;20.20;99.90
21568;DHT22;10944;42.590;12.630;2022-09-27T09:02:37;20.20;99.90
21568;DHT22;10944;42.590;12.630;2022-09-27T09:05:13;20.30;99.90
21568;DHT22;10944;42.590;12.630;2022-09-27T09:19:22;21.70;99.90
21568;DHT22;10944;42.590;12.630;2022-09-27T09:28:06;21.40;99.90
21568;DHT22;10944;42.590;12.630;2022-09-27T09:33:36;21.40;99.90
21568;DHT22;10944;42.590;12.630;2022-09-27T09:36:05;21.40;99.90
21568;DHT22;10944;42.590;12.630;2022-09-27T09:38:56;21.50;99.90
21568;DHT22;10944;42.590;12.630;2022-09-27T09:41:38;21.20;99.90
21568;DHT22;10944;42.590;12.630;2022-09-27T09:44:20;21.10;99.90
21568;DHT22;10944;42.590;12.630;2022-09-27T09:46:51;21.10;99.90
21568;DHT22;10944;42.590;12.630;2022-09-27T09:55:05;21.70;99.90
21568;DHT22;10944;42.590;12.630;2022-09-27T10:00:42;22.60;99.90
21568;DHT22;10944;42.590;12.630;2022-09-27T10:03:08;22.50;99.90
21568;DHT22;10944;42.590;12.630;2022-09-27T10:05:34;22.30;99.90
21568;DHT22;10944;42.590;12.630;2022-09-27T10:08:03;22.30;99.90
21568;DHT22;10944;42.590;12.630;2022-09-27T10:10:31;22.20;99.90
21568;DHT22;10944;42.590;12.630;2022-09-27T10:12:58;21.90;99.90
21568;DHT22;10944;42.590;12.630;2022-09-27T10:15:29;21.70;99.90
21568;DHT22;10944;42.590;12.630;2022-09-27T10:17:57;21.70;99.90
21568;DHT22;10944;42.590;12.630;2022-09-27T10:20:41;21.70;99.90
21568;DHT22;10944;42.590;12.630;2022-09-27T10:23:16;21.90;99.90
21568;DHT22;10944;42.590;12.630;2022-09-27T10:31:08;21.90;99.90
21568;DHT22;10944;42.590;12.630;2022-09-27T10:33:37;21.90;99.90
21568;DHT22;10944;42.590;12.630;2022-09-27T10:36:25;21.80;99.90
21568;DHT22;10944;42.590;12.630;2022-09-27T10:38:53;21.70;99.90
21568;DHT22;10944;42.590;12.630;2022-09-27T10:41:25;21.90;99.90
21568;DHT22;10944;42.590;12.630;2022-09-27T10:43:56;22.10;99.90
21568;DHT22;10944;42.590;12.630;2022-09-27T10:46:27;22.10;99.90
21568;DHT22;10944;42.590;12.630;2022-09-27T10:49:21;22.10;99.90
21568;DHT22;10944;42.590;12.630;2022-09-27T10:51:52;22.00;99.90
21568;DHT22;10944;42.590;12.630;2022-09-27T10:54:31;22.20;99.90
21568;DHT22;10944;42.590;12.630;2022-09-27T10:57:00;22.60;99.90
21568;DHT22;10944;42.590;12.630;2022-09-27T10:59:30;22.80;99.90
21568;DHT22;10944;42.590;12.630;2022-09-27T11:01:58;23.10;99.90
21568;DHT22;10944;42.590;12.630;2022-09-27T11:06:50;23.10;99.90
21568;DHT22;10944;42.590;12.630;2022-09-27T11:09:25;22.80;99.90
21568;DHT22;10944;42.590;12.630;2022-09-27T11:12:07;22.80;99.90
21568;DHT22;10944;42.590;12.630;2022-09-27T11:14:34;22.70;99.90
21568;DHT22;10944;42.590;12.630;2022-09-27T11:17:25;22.50;99.90
21568;DHT22;10944;42.590;12.630;2022-09-27T11:23:04;22.40;99.90
21568;DHT22;10944;42.590;12.630;2022-09-27T11:40:22;22.40;99.90
21568;DHT22;10944;42.590;12.630;2022-09-27T11:43:32;22.80;99.20
21568;DHT22;10944;42.590;12.630;2022-09-27T11:51:21;22.20;99.50
21568;DHT22;10944;42.590;12.630;2022-09-27T11:56:35;22.30;99.80
21568;DHT22;10944;42.590;12.630;2022-09-27T12:01:52;22.20;99.90
21568;DHT22;10944;42.590;12.630;2022-09-27T12:06:56;22.20;99.90
21568;DHT22;10944;42.590;12.630;2022-09-27T12:09:29;22.10;99.50
21568;DHT22;10944;42.590;12.630;2022-09-27T12:12:05;22.00;99.80
21568;DHT22;10944;42.590;12.630;2022-09-27T12:14:44;22.20;99.90
21568;DHT22;10944;42.590;12.630;2022-09-27T12:17:18;22.10;99.40
21568;DHT22;10944;42.590;12.630;2022-09-27T12:19:52;22.00;99.50
21568;DHT22;10944;42.590;12.630;2022-09-27T12:22:33;22.00;99.70
21568;DHT22;10944;42.590;12.630;2022-09-27T12:25:00;21.90;99.20
21568;DHT22;10944;42.590;12.630;2022-09-27T12:27:42;21.80;99.50
21568;DHT22;10944;42.590;12.630;2022-09-27T12:30:12;21.70;99.70
21568;DHT22;10944;42.590;12.630;2022-09-27T12:33:04;21.70;99.90
21568;DHT22;10944;42.590;12.630;2022-09-27T12:35:35;22.10;99.90
21568;DHT22;10944;42.590;12.630;2022-09-27T12:38:14;22.60;99.80
21568;DHT22;10944;42.590;12.630;2022-09-27T12:40:53;22.80;99.50
21568;DHT22;10944;42.590;12.630;2022-09-27T12:43:26;22.60;99.30
21568;DHT22;10944;42.590;12.630;2022-09-27T12:51:57;22.30;99.90
21568;DHT22;10944;42.590;12.630;2022-09-27T12:54:54;22.50;99.90
21568;DHT22;10944;42.590;12.630;2022-09-27T13:00:31;22.50;99.90
21568;DHT22;10944;42.590;12.630;2022-09-27T13:13:53;21.70;99.40
21568;DHT22;10944;42.590;12.630;2022-09-27T13:16:19;21.60;99.20
21568;DHT22;10944;42.590;12.630;2022-09-27T13:18:49;21.60;98.30
21568;DHT22;10944;42.590;12.630;2022-09-27T13:29:49;23.30;97.30
21568;DHT22;10944;42.590;12.630;2022-09-27T13:32:23;23.50;97.80
21568;DHT22;10944;42.590;12.630;2022-09-27T13:34:54;23.70;97.40
21568;DHT22;10944;42.590;12.630;2022-09-27T13:40:34;24.00;98.50
21568;DHT22;10944;42.590;12.630;2022-09-27T13:43:42;24.20;98.00
21568;DHT22;10944;42.590;12.630;2022-09-27T13:46:17;23.90;97.60
21568;DHT22;10944;42.590;12.630;2022-09-27T13:49:25;23.40;97.10
21568;DHT22;10944;42.590;12.630;2022-09-27T13:52:01;23.00;98.20
21568;DHT22;10944;42.590;12.630;2022-09-27T13:54:49;22.90;99.10
21568;DHT22;10944;42.590;12.630;2022-09-27T14:00:03;23.30;98.70
21568;DHT22;10944;42.590;12.630;2022-09-27T14:02:37;23.20;97.60
21568;DHT22;10944;42.590;12.630;2022-09-27T14:05:09;23.20;97.00
21568;DHT22;10944;42.590;12.630;2022-09-27T14:07:41;23.00;97.30
21568;DHT22;10944;42.590;12.630;2022-09-27T14:10:17;22.80;97.20
21568;DHT22;10944;42.590;12.630;2022-09-27T14:12:44;22.60;97.50
21568;DHT22;10944;42.590;12.630;2022-09-27T14:15:28;22.30;97.80
21568;DHT22;10944;42.590;12.630;2022-09-27T14:17:55;22.30;98.30
21568;DHT22;10944;42.590;12.630;2022-09-27T14:20:49;22.30;98.00
21568;DHT22;10944;42.590;12.630;2022-09-27T14:23:23;22.20;98.90
21568;DHT22;10944;42.590;12.630;2022-09-27T14:25:51;22.30;98.70
21568;DHT22;10944;42.590;12.630;2022-09-27T14:28:26;22.40;98.50
21568;DHT22;10944;42.590;12.630;2022-09-27T14:33:32;22.30;98.90
21568;DHT22;10944;42.590;12.630;2022-09-27T14:35:59;22.20;98.80
21568;DHT22;10944;42.590;12.630;2022-09-27T14:38:44;22.10;99.10
21568;DHT22;10944;42.590;12.630;2022-09-27T14:41:10;21.80;99.20
21568;DHT22;10944;42.590;12.630;2022-09-27T14:43:42;21.80;99.10
21568;DHT22;10944;42.590;12.630;2022-09-27T14:46:29;21.70;99.90
21568;DHT22;10944;42.590;12.630;2022-09-27T14:48:56;21.60;99.90
21568;DHT22;10944;42.590;12.630;2022-09-27T14:51:29;21.40;99.90
21568;DHT22;10944;42.590;12.630;2022-09-27T14:53:58;21.30;99.90
21568;DHT22;10944;42.590;12.630;2022-09-27T14:56:33;21.30;99.90
21568;DHT22;10944;42.590;12.630;2022-09-27T14:59:09;21.10;99.90
21568;DHT22;10944;42.590;12.630;2022-09-27T15:01:37;20.90;99.90
21568;DHT22;10944;42.590;12.630;2022-09-27T15:04:06;20.80;99.90
21568;DHT22;10944;42.590;12.630;2022-09-27T15:06:34;21.00;99.90
21568;DHT22;10944;42.590;12.630;2022-09-27T15:09:02;21.00;99.90
21568;DHT22;10944;42.590;12.630;2022-09-27T15:11:29;21.00;99.90
21568;DHT22;10944;42.590;12.630;2022-09-27T15:13:58;21.00;99.90
21568;DHT22;10944;42.590;12.630;2022-09-27T15:16:26;21.10;99.90
21568;DHT22;10944;42.590;12.630;2022-09-27T15:19:10;21.00;99.90
21568;DHT22;10944;42.590;12.630;2022-09-27T15:21:38;20.90;99.90
21568;DHT22;10944;42.590;12.630;2022-09-27T15:24:04;20.80;99.90
21568;DHT22;10944;42.590;12.630;2022-09-27T15:26:46;20.70;99.90
21568;DHT22;10944;42.590;12.630;2022-09-27T15:29:19;20.70;99.90
21568;DHT22;10944;42.590;12.630;2022-09-27T15:31:57;20.70;99.90
21568;DHT22;10944;42.590;12.630;2022-09-27T15:34:24;20.80;99.90
21568;DHT22;10944;42.590;12.630;2022-09-27T15:36:59;21.00;99.90
21568;DHT22;10944;42.590;12.630;2022-09-27T15:39:38;21.00;99.90
21568;DHT22;10944;42.590;12.630;2022-09-27T15:42:13;21.00;99.90
21568;DHT22;10944;42.590;12.630;2022-09-27T15:52:48;20.50;99.90
21568;DHT22;10944;42.590;12.630;2022-09-27T15:55:19;20.50;99.90
21568;DHT22;10944;42.590;12.630;2022-09-27T15:57:48;20.40;99.90
21568;DHT22;10944;42.590;12.630;2022-09-27T16:00:18;20.30;99.90
21568;DHT22;10944;42.590;12.630;2022-09-27T16:02:45;20.30;99.90
21568;DHT22;10944;42.590;12.630;2022-09-27T16:05:11;20.30;99.90
21568;DHT22;10944;42.590;12.630;2022-09-27T16:07:37;20.20;99.90
21568;DHT22;10944;42.590;12.630;2022-09-27T16:10:24;20.20;99.90
21568;DHT22;10944;42.590;12.630;2022-09-27T16:12:51;20.20;99.90
21568;DHT22;10944;42.590;12.630;2022-09-27T16:15:17;20.20;99.90
21568;DHT22;10944;42.590;12.630;2022-09-27T16:17:43;20.10;99.90
21568;DHT22;10944;42.590;12.630;2022-09-27T16:20:23;20.10;99.90
21568;DHT22;10944;42.590;12.630;2022-09-27T16:22:50;20.10;99.90
21568;DHT22;10944;42.590;12.630;2022-09-27T16:25:17;20.10;99.90
21568;DHT22;10944;42.590;12.630;2022-09-27T16:27:42;20.10;99.90
21568;DHT22;10944;42.590;12.630;2022-09-27T16:30:08;20.10;99.90
21568;DHT22;10944;42.590;12.630;2022-09-27T16:32:46;20.10;99.90
21568;DHT22;10944;42.590;12.630;2022-09-27T16:35:13;20.10;99.90
21568;DHT22;10944;42.590;12.630;2022-09-27T16:37:39;20.10;99.90
21568;DHT22;10944;42.590;12.630;2022-09-27T16:40:07;20.00;99.90
21568;DHT22;10944;42.590;12.630;2022-09-27T16:42:33;20.00;99.90
21568;DHT22;10944;42.590;12.630;2022-09-27T16:45:00;20.00;99.90
21568;DHT22;10944;42.590;12.630;2022-09-27T16:47:27;19.90;99.90
21568;DHT22;10944;42.590;12.630;2022-09-27T16:49:52;19.90;99.90
21568;DHT22;10944;42.590;12.630;2022-09-27T16:52:36;19.80;99.90
21568;DHT22;10944;42.590;12.630;2022-09-27T16:55:03;19.70;99.90
21568;DHT22;10944;42.590;12.630;2022-09-27T16:57:29;19.70;99.90
21568;DHT22;10944;42.590;12.630;2022-09-27T16:59:55;19.60;99.90
21568;DHT22;10944;42.590;12.630;2022-09-27T17:02:22;19.50;99.90
21568;DHT22;10944;42.590;12.630;2022-09-27T17:04:49;19.50;99.90
21568;DHT22;10944;42.590;12.630;2022-09-27T17:07:15;19.50;99.90
21568;DHT22;10944;42.590;12.630;2022-09-27T17:09:41;19.40;99.90
21568;DHT22;10944;42.590;12.630;2022-09-27T17:12:06;19.40;99.90
21568;DHT22;10944;42.590;12.630;2022-09-27T17:14:32;19.40;99.90
21568;DHT22;10944;42.590;12.630;2022-09-27T17:16:58;19.40;99.90
21568;DHT22;10944;42.590;12.630;2022-09-27T17:19:24;19.40;99.90
21568;DHT22;10944;42.590;12.630;2022-09-27T17:21:50;19.40;99.90
21568;DHT22;10944;42.590;12.630;2022-09-27T17:24:16;19.40;99.90
21568;DHT22;10944;42.590;12.630;2022-09-27T17:26:42;19.40;99.90
21568;DHT22;10944;42.590;12.630;2022-09-27T17:29:10;19.40;99.90
21568;DHT22;10944;42.590;12.630;2022-09-27T17:31:37;19.30;99.90
21568;DHT22;10944;42.590;12.630;2022-09-27T17:34:05;19.40;99.90
21568;DHT22;10944;42.590;12.630;2022-09-27T17:36:32;19.30;99.90
21568;DHT22;10944;42.590;12.630;2022-09-27T17:38:59;19.30;99.90
21568;DHT22;10944;42.590;12.630;2022-09-27T17:41:27;19.20;99.90
21568;DHT22;10944;42.590;12.630;2022-09-27T17:43:58;19.20;99.90
21568;DHT22;10944;42.590;12.630;2022-09-27T17:46:33;19.20;99.90
21568;DHT22;10944;42.590;12.630;2022-09-27T17:49:00;19.30;99.90
21568;DHT22;10944;42.590;12.630;2022-09-27T17:51:49;19.20;99.90
21568;DHT22;10944;42.590;12.630;2022-09-27T17:54:16;19.20;99.90
21568;DHT22;10944;42.590;12.630;2022-09-27T17:56:44;19.20;99.90
21568;DHT22;10944;42.590;12.630;2022-09-27T17:59:11;19.20;99.90
21568;DHT22;10944;42.590;12.630;2022-09-27T18:01:38;19.20;99.90
21568;DHT22;10944;42.590;12.630;2022-09-27T18:04:05;19.20;99.90
21568;DHT22;10944;42.590;12.630;2022-09-27T18:06:33;19.20;99.90
21568;DHT22;10944;42.590;12.630;2022-09-27T18:09:01;19.10;99.90
21568;DHT22;10944;42.590;12.630;2022-09-27T18:11:27;19.10;99.90
21568;DHT22;10944;42.590;12.630;2022-09-27T18:13:57;19.10;99.90
21568;DHT22;10944;42.590;12.630;2022-09-27T18:16:28;19.00;99.90
21568;DHT22;10944;42.590;12.630;2022-09-27T18:19:00;19.00;99.90
21568;DHT22;10944;42.590;12.630;2022-09-27T18:21:27;19.00;99.90
21568;DHT22;10944;42.590;12.630;2022-09-27T18:23:55;18.90;99.90
21568;DHT22;10944;42.590;12.630;2022-09-27T18:26:25;18.90;99.90